Terminal Aerodrome Forecast
Issued by NWS

Home | Current Version | Previous Version | Graphics & Text | Print | Product List | Glossary On
Versions: 1 2 3 4 5 6 7 8 9 10 11 12 13 14 15 16 17
210
FTUS43 KUNR 252327
TAFGCC
TAF
KGCC 252327Z 2600/2624 36012KT P6SM BKN100
     FM260300 36010KT P6SM -RA SCT010 OVC035
     FM260700 36010KT 2SM -SNRA BR OVC006
     FM261800 35009KT P6SM BKN025=

USA.gov is the U.S. government's official web portal to all federal, state and local government web resources and services.